Rockfield, Indiana
Current Conditions -  °F | °C
As of 6:55 PM on Sunday 21 Dec 2014 (Local Time) from KMCX Reporting Station
Clear Clear  
Wind Chill: 26°   Ceiling: Unl
Heat Index: 32°   Visibility: 7mi
Dew Point: 28°   Wind: 7mph
Humidity: 85%   Direction: 140°SE
Pressure: 30.12"   Gusts: NA
Location:  40.64°N, 86.57°W
Report Text: KMCX 212355Z AUTO 14006KT 7SM CLR 00/M02 A3012 RMK AO2 T00021020 10035 20002
Loading
Personal Weather Stations






























Interactive Weather Map New forecast layout! Learn more

10-Day Weather Forecast

Advertisements
Track Severe Weather on mobile